sensor_id;sensor_type;location;lat;lon;timestamp;pressure;altitude;pressure_sealevel;temperature;humidity
58686;BME280;44465;53.206;-6.106;2023-05-09T00:00:03;101084.00;;;21.36;57.78
58686;BME280;44465;53.206;-6.106;2023-05-09T00:02:30;101113.78;;;21.47;57.64
58686;BME280;44465;53.206;-6.106;2023-05-09T00:04:59;101084.16;;;21.33;57.53
58686;BME280;44465;53.206;-6.106;2023-05-09T00:07:28;101108.19;;;21.52;57.72
58686;BME280;44465;53.206;-6.106;2023-05-09T00:09:54;101090.78;;;21.43;57.88
58686;BME280;44465;53.206;-6.106;2023-05-09T00:12:19;101083.22;;;21.34;57.79
58686;BME280;44465;53.206;-6.106;2023-05-09T00:14:45;101105.50;;;21.52;57.77
58686;BME280;44465;53.206;-6.106;2023-05-09T00:17:14;101069.88;;;21.32;57.82
58686;BME280;44465;53.206;-6.106;2023-05-09T00:19:42;101097.88;;;21.44;57.93
58686;BME280;44465;53.206;-6.106;2023-05-09T00:22:07;101098.56;;;21.48;57.57
58686;BME280;44465;53.206;-6.106;2023-05-09T00:24:33;101086.50;;;21.39;57.65
58686;BME280;44465;53.206;-6.106;2023-05-09T00:26:59;101110.13;;;21.48;57.66
58686;BME280;44465;53.206;-6.106;2023-05-09T00:29:25;101104.78;;;21.48;57.43
58686;BME280;44465;53.206;-6.106;2023-05-09T00:31:50;101108.25;;;21.50;57.72
58686;BME280;44465;53.206;-6.106;2023-05-09T00:34:46;101111.00;;;21.49;57.61
58686;BME280;44465;53.206;-6.106;2023-05-09T00:37:12;101106.69;;;21.46;57.77
58686;BME280;44465;53.206;-6.106;2023-05-09T00:39:37;101102.19;;;21.47;57.93
58686;BME280;44465;53.206;-6.106;2023-05-09T00:42:04;101107.44;;;21.48;57.83
58686;BME280;44465;53.206;-6.106;2023-05-09T00:44:30;101112.06;;;21.46;57.81
58686;BME280;44465;53.206;-6.106;2023-05-09T00:46:55;101121.72;;;21.49;57.91
58686;BME280;44465;53.206;-6.106;2023-05-09T00:49:21;101112.91;;;21.47;57.91
58686;BME280;44465;53.206;-6.106;2023-05-09T00:51:53;101091.25;;;21.34;57.80
58686;BME280;44465;53.206;-6.106;2023-05-09T00:54:18;101105.97;;;21.43;57.50
58686;BME280;44465;53.206;-6.106;2023-05-09T00:56:44;101096.50;;;21.35;57.86
58686;BME280;44465;53.206;-6.106;2023-05-09T00:59:10;101108.44;;;21.47;57.84
58686;BME280;44465;53.206;-6.106;2023-05-09T01:01:36;101112.91;;;21.47;57.95
58686;BME280;44465;53.206;-6.106;2023-05-09T01:04:01;101064.41;;;21.18;57.85
58686;BME280;44465;53.206;-6.106;2023-05-09T01:22:42;101082.19;;;21.19;57.84
58686;BME280;44465;53.206;-6.106;2023-05-09T01:27:57;101097.56;;;21.33;57.87
58686;BME280;44465;53.206;-6.106;2023-05-09T01:30:25;101101.88;;;21.35;57.96
58686;BME280;44465;53.206;-6.106;2023-05-09T01:32:56;101096.06;;;21.27;57.92
58686;BME280;44465;53.206;-6.106;2023-05-09T01:35:24;101102.81;;;21.34;58.04
58686;BME280;44465;53.206;-6.106;2023-05-09T01:37:51;101113.22;;;21.41;57.82
58686;BME280;44465;53.206;-6.106;2023-05-09T01:40:19;101114.97;;;21.42;57.67
58686;BME280;44465;53.206;-6.106;2023-05-09T01:42:51;101113.28;;;21.39;57.81
58686;BME280;44465;53.206;-6.106;2023-05-09T01:45:22;101115.91;;;21.41;58.04
58686;BME280;44465;53.206;-6.106;2023-05-09T01:47:49;101094.97;;;21.31;57.69
58686;BME280;44465;53.206;-6.106;2023-05-09T01:50:17;101073.84;;;21.25;57.93
58686;BME280;44465;53.206;-6.106;2023-05-09T01:52:46;101080.84;;;21.28;57.66
58686;BME280;44465;53.206;-6.106;2023-05-09T01:55:14;101095.44;;;21.39;57.87
58686;BME280;44465;53.206;-6.106;2023-05-09T01:57:41;101064.06;;;21.24;57.81
58686;BME280;44465;53.206;-6.106;2023-05-09T02:00:08;101042.56;;;21.08;57.88
58686;BME280;44465;53.206;-6.106;2023-05-09T02:02:42;101084.72;;;21.39;57.94
58686;BME280;44465;53.206;-6.106;2023-05-09T02:05:09;101075.03;;;21.37;57.93
58686;BME280;44465;53.206;-6.106;2023-05-09T02:07:36;101084.72;;;21.39;57.63
58686;BME280;44465;53.206;-6.106;2023-05-09T02:10:04;101074.16;;;21.36;57.83
58686;BME280;44465;53.206;-6.106;2023-05-09T02:12:31;101047.19;;;21.22;57.90
58686;BME280;44465;53.206;-6.106;2023-05-09T02:14:57;101037.84;;;21.13;57.95
58686;BME280;44465;53.206;-6.106;2023-05-09T02:17:22;101055.03;;;21.27;57.97
58686;BME280;44465;53.206;-6.106;2023-05-09T02:19:48;101074.94;;;21.38;57.98
58686;BME280;44465;53.206;-6.106;2023-05-09T02:22:13;101074.94;;;21.38;57.97
58686;BME280;44465;53.206;-6.106;2023-05-09T02:24:41;101055.97;;;21.26;57.79
58686;BME280;44465;53.206;-6.106;2023-05-09T02:27:09;101071.00;;;21.28;57.98
58686;BME280;44465;53.206;-6.106;2023-05-09T02:29:44;101066.34;;;21.32;57.58
58686;BME280;44465;53.206;-6.106;2023-05-09T02:32:14;101042.97;;;21.18;57.80
58686;BME280;44465;53.206;-6.106;2023-05-09T02:34:41;101054.94;;;21.28;57.73
58686;BME280;44465;53.206;-6.106;2023-05-09T02:37:07;101045.41;;;21.22;57.74
58686;BME280;44465;53.206;-6.106;2023-05-09T02:39:34;101076.03;;;21.34;57.74
58686;BME280;44465;53.206;-6.106;2023-05-09T02:42:12;101052.66;;;21.20;57.59
58686;BME280;44465;53.206;-6.106;2023-05-09T02:44:37;101065.50;;;21.31;57.91
58686;BME280;44465;53.206;-6.106;2023-05-09T02:47:04;101059.41;;;21.28;57.91
58686;BME280;44465;53.206;-6.106;2023-05-09T02:49:30;101012.66;;;21.00;58.04
58686;BME280;44465;53.206;-6.106;2023-05-09T02:51:55;101040.28;;;21.18;57.93
58686;BME280;44465;53.206;-6.106;2023-05-09T02:54:21;101058.66;;;21.26;57.87
58686;BME280;44465;53.206;-6.106;2023-05-09T02:56:46;101070.75;;;21.33;57.83
58686;BME280;44465;53.206;-6.106;2023-05-09T02:59:12;101043.13;;;21.15;57.73
58686;BME280;44465;53.206;-6.106;2023-05-09T03:01:38;101060.28;;;21.28;57.90
58686;BME280;44465;53.206;-6.106;2023-05-09T03:04:03;101069.88;;;21.32;57.85
58686;BME280;44465;53.206;-6.106;2023-05-09T03:06:29;101056.22;;;21.21;57.73
58686;BME280;44465;53.206;-6.106;2023-05-09T03:08:55;101050.22;;;21.16;57.91
58686;BME280;44465;53.206;-6.106;2023-05-09T03:11:22;101011.16;;;20.94;57.75
58686;BME280;44465;53.206;-6.106;2023-05-09T03:13:48;101076.22;;;21.31;57.57
58686;BME280;44465;53.206;-6.106;2023-05-09T03:16:16;101072.66;;;21.31;57.70
58686;BME280;44465;53.206;-6.106;2023-05-09T03:18:42;101051.00;;;21.18;57.49
58686;BME280;44465;53.206;-6.106;2023-05-09T03:21:08;101061.25;;;21.27;57.84
58686;BME280;44465;53.206;-6.106;2023-05-09T03:23:35;101023.91;;;21.06;57.89
58686;BME280;44465;53.206;-6.106;2023-05-09T03:26:01;101048.19;;;21.21;57.76
58686;BME280;44465;53.206;-6.106;2023-05-09T03:28:27;100984.88;;;20.85;57.76
58686;BME280;44465;53.206;-6.106;2023-05-09T03:30:55;101047.19;;;21.22;57.86
58686;BME280;44465;53.206;-6.106;2023-05-09T03:33:23;101056.81;;;21.26;57.70
58686;BME280;44465;53.206;-6.106;2023-05-09T03:35:49;101039.34;;;21.19;57.93
58686;BME280;44465;53.206;-6.106;2023-05-09T03:38:14;101040.38;;;21.16;57.78
58686;BME280;44465;53.206;-6.106;2023-05-09T03:40:40;100991.38;;;20.97;57.62
58686;BME280;44465;53.206;-6.106;2023-05-09T03:43:08;101021.00;;;21.11;57.69
58686;BME280;44465;53.206;-6.106;2023-05-09T03:45:34;101047.06;;;21.25;57.91
58686;BME280;44465;53.206;-6.106;2023-05-09T03:48:00;101026.34;;;21.11;57.55
58686;BME280;44465;53.206;-6.106;2023-05-09T03:50:29;101052.34;;;21.27;57.65
58686;BME280;44465;53.206;-6.106;2023-05-09T03:52:57;101046.59;;;21.17;57.67
58686;BME280;44465;53.206;-6.106;2023-05-09T03:55:22;101016.69;;;21.08;57.80
58686;BME280;44465;53.206;-6.106;2023-05-09T03:57:48;101039.50;;;21.16;57.81
58686;BME280;44465;53.206;-6.106;2023-05-09T04:00:14;101042.72;;;21.22;57.72
58686;BME280;44465;53.206;-6.106;2023-05-09T04:02:40;100976.69;;;20.88;57.79
58686;BME280;44465;53.206;-6.106;2023-05-09T04:05:07;101027.19;;;21.12;57.84
58686;BME280;44465;53.206;-6.106;2023-05-09T04:07:36;101048.00;;;21.24;57.92
58686;BME280;44465;53.206;-6.106;2023-05-09T04:10:02;101033.28;;;21.15;57.85
58686;BME280;44465;53.206;-6.106;2023-05-09T04:12:28;100997.63;;;20.97;57.91
58686;BME280;44465;53.206;-6.106;2023-05-09T04:14:53;101039.97;;;21.24;57.80
58686;BME280;44465;53.206;-6.106;2023-05-09T04:17:19;101034.69;;;21.22;57.61
58686;BME280;44465;53.206;-6.106;2023-05-09T04:19:45;101026.00;;;21.17;57.97
58686;BME280;44465;53.206;-6.106;2023-05-09T04:22:11;101006.13;;;21.05;57.83
58686;BME280;44465;53.206;-6.106;2023-05-09T04:24:37;101004.47;;;21.03;57.71
58686;BME280;44465;53.206;-6.106;2023-05-09T04:27:02;101038.47;;;21.18;57.96
58686;BME280;44465;53.206;-6.106;2023-05-09T04:29:28;101044.47;;;21.23;57.58
58686;BME280;44465;53.206;-6.106;2023-05-09T04:31:54;101023.59;;;21.13;57.80
58686;BME280;44465;53.206;-6.106;2023-05-09T04:34:23;101042.81;;;21.21;57.87
58686;BME280;44465;53.206;-6.106;2023-05-09T04:36:51;101019.97;;;21.14;57.79
58686;BME280;44465;53.206;-6.106;2023-05-09T04:39:17;101028.63;;;21.19;57.48
58686;BME280;44465;53.206;-6.106;2023-05-09T04:41:52;101032.09;;;21.21;57.44
58686;BME280;44465;53.206;-6.106;2023-05-09T04:44:18;101023.44;;;21.16;57.43
58686;BME280;44465;53.206;-6.106;2023-05-09T04:46:44;101018.97;;;21.16;57.65
58686;BME280;44465;53.206;-6.106;2023-05-09T04:49:09;101027.69;;;21.20;57.61
58686;BME280;44465;53.206;-6.106;2023-05-09T04:51:35;101015.31;;;21.17;57.44
58686;BME280;44465;53.206;-6.106;2023-05-09T04:54:02;100989.25;;;21.03;57.75
58686;BME280;44465;53.206;-6.106;2023-05-09T04:56:31;101022.25;;;21.21;57.84
58686;BME280;44465;53.206;-6.106;2023-05-09T04:58:58;101025.03;;;21.20;57.62
58686;BME280;44465;53.206;-6.106;2023-05-09T05:01:24;100981.84;;;20.91;57.76
58686;BME280;44465;53.206;-6.106;2023-05-09T05:03:51;100953.13;;;20.77;57.70
58686;BME280;44465;53.206;-6.106;2023-05-09T05:06:16;101017.03;;;21.18;57.84
58686;BME280;44465;53.206;-6.106;2023-05-09T05:08:42;100991.88;;;21.05;57.68
58686;BME280;44465;53.206;-6.106;2023-05-09T05:11:08;100997.00;;;21.10;57.58
58686;BME280;44465;53.206;-6.106;2023-05-09T05:13:33;100992.72;;;21.05;57.66
58686;BME280;44465;53.206;-6.106;2023-05-09T05:16:00;101016.09;;;21.19;57.65
58686;BME280;44465;53.206;-6.106;2023-05-09T05:18:25;101000.44;;;21.12;57.47
58686;BME280;44465;53.206;-6.106;2023-05-09T05:20:52;100974.38;;;20.98;57.64
58686;BME280;44465;53.206;-6.106;2023-05-09T05:23:17;101008.94;;;21.20;57.65
58686;BME280;44465;53.206;-6.106;2023-05-09T05:25:43;101008.41;;;21.13;57.66
58686;BME280;44465;53.206;-6.106;2023-05-09T05:28:11;101010.84;;;21.18;57.83
58686;BME280;44465;53.206;-6.106;2023-05-09T05:30:39;101012.72;;;21.16;57.52
58686;BME280;44465;53.206;-6.106;2023-05-09T05:33:04;100983.09;;;21.01;57.69
58686;BME280;44465;53.206;-6.106;2023-05-09T05:35:30;101004.69;;;21.16;57.85
58686;BME280;44465;53.206;-6.106;2023-05-09T05:37:56;101013.66;;;21.15;57.93
58686;BME280;44465;53.206;-6.106;2023-05-09T05:40:21;100987.72;;;20.99;57.68
58686;BME280;44465;53.206;-6.106;2023-05-09T05:42:49;100994.56;;;21.05;57.74
58686;BME280;44465;53.206;-6.106;2023-05-09T05:45:15;101016.09;;;21.19;57.65
58686;BME280;44465;53.206;-6.106;2023-05-09T05:47:44;100955.56;;;20.82;57.87
58686;BME280;44465;53.206;-6.106;2023-05-09T05:50:10;101015.41;;;21.16;57.54
58686;BME280;44465;53.206;-6.106;2023-05-09T05:52:38;101008.94;;;21.20;57.75
58686;BME280;44465;53.206;-6.106;2023-05-09T05:55:04;101009.09;;;21.17;57.74
58686;BME280;44465;53.206;-6.106;2023-05-09T05:57:30;101008.47;;;21.12;57.78
58686;BME280;44465;53.206;-6.106;2023-05-09T05:59:55;100940.06;;;20.71;58.11
58686;BME280;44465;53.206;-6.106;2023-05-09T06:02:22;100995.56;;;21.02;57.94
58686;BME280;44465;53.206;-6.106;2023-05-09T06:04:48;100989.25;;;21.03;57.69
58686;BME280;44465;53.206;-6.106;2023-05-09T06:07:14;100988.47;;;21.01;57.64
58686;BME280;44465;53.206;-6.106;2023-05-09T06:09:40;101004.22;;;21.07;57.57
58686;BME280;44465;53.206;-6.106;2023-05-09T06:12:06;101004.22;;;21.07;57.67
58686;BME280;44465;53.206;-6.106;2023-05-09T06:14:32;101007.84;;;21.06;57.67
58686;BME280;44465;53.206;-6.106;2023-05-09T06:16:58;101031.31;;;21.19;57.63
58686;BME280;44465;53.206;-6.106;2023-05-09T06:19:30;100960.22;;;20.78;57.68
58686;BME280;44465;53.206;-6.106;2023-05-09T06:21:56;100983.59;;;20.92;57.70
58686;BME280;44465;53.206;-6.106;2023-05-09T06:24:21;100975.00;;;20.85;57.76
58686;BME280;44465;53.206;-6.106;2023-05-09T06:26:48;101025.31;;;21.14;57.83
58686;BME280;44465;53.206;-6.106;2023-05-09T06:29:14;101041.09;;;21.20;57.84
58686;BME280;44465;53.206;-6.106;2023-05-09T06:31:39;101036.59;;;21.20;57.81
58686;BME280;44465;53.206;-6.106;2023-05-09T06:34:05;101028.94;;;21.13;57.88
58686;BME280;44465;53.206;-6.106;2023-05-09T06:36:31;101028.94;;;21.13;57.71
58686;BME280;44465;53.206;-6.106;2023-05-09T06:38:57;101028.94;;;21.13;57.92
58686;BME280;44465;53.206;-6.106;2023-05-09T06:41:23;101032.16;;;21.19;57.67
58686;BME280;44465;53.206;-6.106;2023-05-09T06:43:49;101025.16;;;21.17;57.77
58686;BME280;44465;53.206;-6.106;2023-05-09T06:46:14;101010.19;;;21.13;57.89
58686;BME280;44465;53.206;-6.106;2023-05-09T06:48:40;101026.00;;;21.17;57.91
58686;BME280;44465;53.206;-6.106;2023-05-09T06:51:05;100983.59;;;20.92;57.65
58686;BME280;44465;53.206;-6.106;2023-05-09T06:53:31;101033.91;;;21.20;57.81
58686;BME280;44465;53.206;-6.106;2023-05-09T06:55:56;100988.47;;;21.01;57.74
58686;BME280;44465;53.206;-6.106;2023-05-09T06:58:22;101027.59;;;21.21;57.91
58686;BME280;44465;53.206;-6.106;2023-05-09T07:00:47;101019.91;;;21.15;57.92
58686;BME280;44465;53.206;-6.106;2023-05-09T07:03:13;101018.78;;;21.19;57.76
58686;BME280;44465;53.206;-6.106;2023-05-09T07:05:38;101000.75;;;21.05;58.02
58686;BME280;44465;53.206;-6.106;2023-05-09T07:08:04;100980.78;;;20.95;57.93
58686;BME280;44465;53.206;-6.106;2023-05-09T07:10:30;101031.06;;;21.23;57.97
58686;BME280;44465;53.206;-6.106;2023-05-09T07:12:55;101003.19;;;21.10;57.91
58686;BME280;44465;53.206;-6.106;2023-05-09T07:15:21;101002.66;;;21.03;58.04
58686;BME280;44465;53.206;-6.106;2023-05-09T07:17:46;101007.50;;;21.13;57.97
58686;BME280;44465;53.206;-6.106;2023-05-09T07:20:12;101030.28;;;21.21;57.88
58686;BME280;44465;53.206;-6.106;2023-05-09T07:22:37;101025.03;;;21.20;58.10
58686;BME280;44465;53.206;-6.106;2023-05-09T07:25:05;101024.69;;;21.26;57.86
58686;BME280;44465;53.206;-6.106;2023-05-09T07:27:31;100919.97;;;20.62;57.93
58686;BME280;44465;53.206;-6.106;2023-05-09T07:29:56;100998.88;;;21.07;57.94
58686;BME280;44465;53.206;-6.106;2023-05-09T07:32:22;100973.78;;;20.92;58.00
58686;BME280;44465;53.206;-6.106;2023-05-09T07:34:47;101030.97;;;21.25;58.09
58686;BME280;44465;53.206;-6.106;2023-05-09T07:37:13;101026.75;;;21.21;58.01
58686;BME280;44465;53.206;-6.106;2023-05-09T07:39:38;101030.03;;;21.26;58.11
58686;BME280;44465;53.206;-6.106;2023-05-09T07:42:04;100990.03;;;21.05;57.68
58686;BME280;44465;53.206;-6.106;2023-05-09T07:44:29;101000.75;;;21.05;57.79
58686;BME280;44465;53.206;-6.106;2023-05-09T07:46:55;101016.19;;;21.18;57.86
58686;BME280;44465;53.206;-6.106;2023-05-09T07:49:24;101028.16;;;21.28;57.99
58686;BME280;44465;53.206;-6.106;2023-05-09T07:51:49;101017.03;;;21.18;57.67
58686;BME280;44465;53.206;-6.106;2023-05-09T07:54:15;101037.91;;;21.29;57.61
58686;BME280;44465;53.206;-6.106;2023-05-09T07:56:41;100992.72;;;21.05;57.75
58686;BME280;44465;53.206;-6.106;2023-05-09T07:59:07;101031.63;;;21.30;57.97
58686;BME280;44465;53.206;-6.106;2023-05-09T08:01:32;101024.53;;;21.29;57.85
58686;BME280;44465;53.206;-6.106;2023-05-09T08:03:59;101015.84;;;21.24;57.79
58686;BME280;44465;53.206;-6.106;2023-05-09T08:06:25;101022.00;;;21.26;57.78
58686;BME280;44465;53.206;-6.106;2023-05-09T08:08:51;101001.22;;;21.14;58.07
58686;BME280;44465;53.206;-6.106;2023-05-09T08:11:16;101028.84;;;21.32;57.50
58686;BME280;44465;53.206;-6.106;2023-05-09T08:13:42;101014.13;;;21.23;57.63
58686;BME280;44465;53.206;-6.106;2023-05-09T08:16:07;101026.16;;;21.32;57.86
58686;BME280;44465;53.206;-6.106;2023-05-09T08:18:33;100998.47;;;21.15;57.65
58686;BME280;44465;53.206;-6.106;2023-05-09T08:20:58;101014.66;;;21.30;57.67
58686;BME280;44465;53.206;-6.106;2023-05-09T08:23:25;100980.91;;;21.10;57.75
58686;BME280;44465;53.206;-6.106;2023-05-09T08:25:54;101027.03;;;21.32;57.92
58686;BME280;44465;53.206;-6.106;2023-05-09T08:28:20;101026.00;;;21.35;57.80
58686;BME280;44465;53.206;-6.106;2023-05-09T08:30:49;101023.34;;;21.35;57.88
58686;BME280;44465;53.206;-6.106;2023-05-09T08:33:15;100984.31;;;21.13;57.62
58686;BME280;44465;53.206;-6.106;2023-05-09T08:35:41;101022.44;;;21.34;57.86
58686;BME280;44465;53.206;-6.106;2023-05-09T08:38:06;100949.91;;;20.88;57.72
58686;BME280;44465;53.206;-6.106;2023-05-09T08:40:36;101023.34;;;21.35;57.73
58686;BME280;44465;53.206;-6.106;2023-05-09T08:43:05;101029.41;;;21.38;57.58
58686;BME280;44465;53.206;-6.106;2023-05-09T08:45:44;101018.22;;;21.30;57.80
58686;BME280;44465;53.206;-6.106;2023-05-09T08:48:12;101024.88;;;21.39;57.89
58686;BME280;44465;53.206;-6.106;2023-05-09T08:50:39;101017.28;;;21.31;57.66
58686;BME280;44465;53.206;-6.106;2023-05-09T08:53:05;101027.50;;;21.41;57.69
58686;BME280;44465;53.206;-6.106;2023-05-09T08:55:31;101012.88;;;21.30;57.73
58686;BME280;44465;53.206;-6.106;2023-05-09T08:57:57;100975.56;;;21.10;57.66
58686;BME280;44465;53.206;-6.106;2023-05-09T09:00:24;101017.72;;;21.39;57.75
58686;BME280;44465;53.206;-6.106;2023-05-09T09:02:51;101012.53;;;21.36;57.42
58686;BME280;44465;53.206;-6.106;2023-05-09T09:08:24;101007.81;;;21.42;57.47
58686;BME280;44465;53.206;-6.106;2023-05-09T09:10:51;100996.56;;;21.35;57.85
58686;BME280;44465;53.206;-6.106;2023-05-09T09:13:19;101010.38;;;21.43;57.64
58686;BME280;44465;53.206;-6.106;2023-05-09T09:15:46;100982.28;;;21.34;57.78
58686;BME280;44465;53.206;-6.106;2023-05-09T09:18:27;100992.03;;;21.35;57.85
58686;BME280;44465;53.206;-6.106;2023-05-09T09:21:05;100971.25;;;21.23;57.53
58686;BME280;44465;53.206;-6.106;2023-05-09T09:23:31;100997.09;;;21.42;57.54
58686;BME280;44465;53.206;-6.106;2023-05-09T09:25:59;101007.47;;;21.48;57.89
58686;BME280;44465;53.206;-6.106;2023-05-09T09:28:26;100996.75;;;21.48;57.87
58686;BME280;44465;53.206;-6.106;2023-05-09T09:30:52;100996.75;;;21.48;57.88
58686;BME280;44465;53.206;-6.106;2023-05-09T09:33:21;100998.47;;;21.49;57.98
58686;BME280;44465;53.206;-6.106;2023-05-09T09:35:51;100994.84;;;21.50;57.75
58686;BME280;44465;53.206;-6.106;2023-05-09T09:38:17;100957.47;;;21.31;57.74
58686;BME280;44465;53.206;-6.106;2023-05-09T09:40:56;100989.66;;;21.47;57.65
58686;BME280;44465;53.206;-6.106;2023-05-09T09:43:30;100975.81;;;21.38;57.77
58686;BME280;44465;53.206;-6.106;2023-05-09T09:45:56;100972.97;;;21.42;57.76
58686;BME280;44465;53.206;-6.106;2023-05-09T09:48:33;100936.00;;;21.15;57.63
58686;BME280;44465;53.206;-6.106;2023-05-09T09:51:12;100934.97;;;21.17;57.53
58686;BME280;44465;53.206;-6.106;2023-05-09T09:53:39;100960.25;;;21.29;57.59
58686;BME280;44465;53.206;-6.106;2023-05-09T09:56:05;100984.28;;;21.47;57.77
58686;BME280;44465;53.206;-6.106;2023-05-09T09:58:31;100974.94;;;21.38;57.48
58686;BME280;44465;53.206;-6.106;2023-05-09T10:01:10;100989.50;;;21.50;57.97
58686;BME280;44465;53.206;-6.106;2023-05-09T10:03:42;100970.13;;;21.45;57.71
58686;BME280;44465;53.206;-6.106;2023-05-09T10:06:13;100983.19;;;21.51;57.65
58686;BME280;44465;53.206;-6.106;2023-05-09T10:08:41;100990.19;;;21.53;57.49
58686;BME280;44465;53.206;-6.106;2023-05-09T10:11:08;100991.03;;;21.54;57.60
58686;BME280;44465;53.206;-6.106;2023-05-09T10:13:34;100974.38;;;21.49;57.77
58686;BME280;44465;53.206;-6.106;2023-05-09T10:16:04;100982.06;;;21.55;57.70
58686;BME280;44465;53.206;-6.106;2023-05-09T10:18:30;100982.94;;;21.56;57.55
58686;BME280;44465;53.206;-6.106;2023-05-09T10:20:56;100982.25;;;21.52;57.55
58686;BME280;44465;53.206;-6.106;2023-05-09T10:23:29;100980.50;;;21.51;57.40
58686;BME280;44465;53.206;-6.106;2023-05-09T10:26:16;100974.47;;;21.47;57.37
58686;BME280;44465;53.206;-6.106;2023-05-09T10:28:44;100978.78;;;21.50;57.35
58686;BME280;44465;53.206;-6.106;2023-05-09T10:31:27;100985.00;;;21.50;57.41
58686;BME280;44465;53.206;-6.106;2023-05-09T10:33:54;100952.81;;;21.34;57.41
58686;BME280;44465;53.206;-6.106;2023-05-09T10:36:21;100984.75;;;21.55;57.60
58686;BME280;44465;53.206;-6.106;2023-05-09T10:38:48;100986.81;;;21.50;57.70
58686;BME280;44465;53.206;-6.106;2023-05-09T10:41:15;100966.84;;;21.39;57.54
58686;BME280;44465;53.206;-6.106;2023-05-09T10:43:41;100984.94;;;21.52;57.45
58686;BME280;44465;53.206;-6.106;2023-05-09T10:46:07;100981.84;;;21.60;57.25
58686;BME280;44465;53.206;-6.106;2023-05-09T10:48:33;100966.31;;;21.49;57.35
58686;BME280;44465;53.206;-6.106;2023-05-09T10:51:01;100968.22;;;21.47;57.30
58686;BME280;44465;53.206;-6.106;2023-05-09T10:53:44;100962.06;;;21.45;57.52
58686;BME280;44465;53.206;-6.106;2023-05-09T10:56:31;100994.22;;;21.62;57.18
58686;BME280;44465;53.206;-6.106;2023-05-09T10:58:58;100953.88;;;21.48;57.38
58686;BME280;44465;53.206;-6.106;2023-05-09T11:01:35;100975.47;;;21.62;56.96
58686;BME280;44465;53.206;-6.106;2023-05-09T11:04:11;100965.13;;;21.54;57.15
58686;BME280;44465;53.206;-6.106;2023-05-09T11:09:29;100958.41;;;21.63;56.96
58686;BME280;44465;53.206;-6.106;2023-05-09T11:14:44;100966.91;;;21.72;56.76
58686;BME280;44465;53.206;-6.106;2023-05-09T11:17:27;100968.44;;;21.76;56.93
58686;BME280;44465;53.206;-6.106;2023-05-09T11:19:58;100969.13;;;21.79;56.79
58686;BME280;44465;53.206;-6.106;2023-05-09T11:25:01;100962.75;;;21.82;56.62
58686;BME280;44465;53.206;-6.106;2023-05-09T11:27:27;100953.25;;;21.76;56.52
58686;BME280;44465;53.206;-6.106;2023-05-09T11:29:57;100955.69;;;21.81;56.64
58686;BME280;44465;53.206;-6.106;2023-05-09T11:32:49;100949.44;;;21.80;56.50
58686;BME280;44465;53.206;-6.106;2023-05-09T11:35:19;100947.44;;;21.84;56.71
58686;BME280;44465;53.206;-6.106;2023-05-09T11:37:50;100949.78;;;21.90;56.57
58686;BME280;44465;53.206;-6.106;2023-05-09T11:40:18;100940.97;;;21.88;56.56
58686;BME280;44465;53.206;-6.106;2023-05-09T11:42:46;100945.00;;;21.95;56.28
58686;BME280;44465;53.206;-6.106;2023-05-09T11:45:12;100942.59;;;21.91;56.17
58686;BME280;44465;53.206;-6.106;2023-05-09T11:47:40;100944.16;;;21.95;56.27
58686;BME280;44465;53.206;-6.106;2023-05-09T11:50:10;100945.53;;;21.86;56.42
58686;BME280;44465;53.206;-6.106;2023-05-09T11:52:37;100949.00;;;21.88;56.44
58686;BME280;44465;53.206;-6.106;2023-05-09T11:55:12;100942.78;;;21.88;56.40
58686;BME280;44465;53.206;-6.106;2023-05-09T11:57:45;100955.75;;;21.95;56.13
58686;BME280;44465;53.206;-6.106;2023-05-09T12:00:21;100957.66;;;21.93;56.48
58686;BME280;44465;53.206;-6.106;2023-05-09T12:02:47;100948.31;;;22.00;56.09
58686;BME280;44465;53.206;-6.106;2023-05-09T12:05:15;100935.25;;;21.94;56.27
58686;BME280;44465;53.206;-6.106;2023-05-09T12:07:41;100936.03;;;21.96;56.31
58686;BME280;44465;53.206;-6.106;2023-05-09T12:10:08;100910.69;;;21.86;56.07
58686;BME280;44465;53.206;-6.106;2023-05-09T12:12:35;100939.13;;;22.05;56.20
58686;BME280;44465;53.206;-6.106;2023-05-09T12:15:07;100940.78;;;22.07;56.23
58686;BME280;44465;53.206;-6.106;2023-05-09T12:17:34;100932.81;;;22.06;56.07
58686;BME280;44465;53.206;-6.106;2023-05-09T12:20:00;100931.06;;;22.05;56.24
58686;BME280;44465;53.206;-6.106;2023-05-09T12:22:26;100916.31;;;21.97;56.25
58686;BME280;44465;53.206;-6.106;2023-05-09T12:24:53;100928.22;;;22.08;56.29
58686;BME280;44465;53.206;-6.106;2023-05-09T12:27:19;100914.22;;;22.03;56.15
58686;BME280;44465;53.206;-6.106;2023-05-09T12:29:44;100925.53;;;22.08;56.33
58686;BME280;44465;53.206;-6.106;2023-05-09T12:32:15;100922.69;;;22.11;56.42
58686;BME280;44465;53.206;-6.106;2023-05-09T12:34:41;100934.19;;;22.13;56.25
58686;BME280;44465;53.206;-6.106;2023-05-09T12:37:18;100925.38;;;22.11;56.28
58686;BME280;44465;53.206;-6.106;2023-05-09T12:40:09;100931.41;;;22.14;56.37
58686;BME280;44465;53.206;-6.106;2023-05-09T12:42:37;100931.94;;;22.21;56.39
58686;BME280;44465;53.206;-6.106;2023-05-09T12:45:06;100917.91;;;22.16;56.30
58686;BME280;44465;53.206;-6.106;2023-05-09T12:47:32;100916.09;;;22.16;56.10
58686;BME280;44465;53.206;-6.106;2023-05-09T12:50:02;100911.31;;;22.22;56.27
58686;BME280;44465;53.206;-6.106;2023-05-09T12:52:39;100901.06;;;22.14;56.41
58686;BME280;44465;53.206;-6.106;2023-05-09T12:55:09;100921.31;;;22.20;56.51
58686;BME280;44465;53.206;-6.106;2023-05-09T12:57:36;100911.16;;;22.25;56.36
58686;BME280;44465;53.206;-6.106;2023-05-09T13:00:04;100919.03;;;22.28;56.15
58686;BME280;44465;53.206;-6.106;2023-05-09T13:02:39;100892.03;;;22.15;56.32
58686;BME280;44465;53.206;-6.106;2023-05-09T13:05:13;100909.44;;;22.24;56.39
58686;BME280;44465;53.206;-6.106;2023-05-09T13:07:41;100885.25;;;22.09;56.59
58686;BME280;44465;53.206;-6.106;2023-05-09T13:10:12;100905.13;;;22.21;56.47
58686;BME280;44465;53.206;-6.106;2023-05-09T13:12:38;100907.63;;;22.24;56.61